createdAt,value
2023-12-11T00:04:00.773Z,16.25
2023-12-11T00:09:04.175Z,14.25
2023-12-11T00:14:07.687Z,13.00
2023-12-11T00:19:12.421Z,13.50
2023-12-11T00:24:16.356Z,16.50
2023-12-11T00:29:19.812Z,10.00
2023-12-11T00:34:23.230Z,12.50
2023-12-11T00:39:26.475Z,12.75
2023-12-11T00:44:29.875Z,13.25
2023-12-11T00:49:33.384Z,13.33
2023-12-11T00:54:36.833Z,15.75
2023-12-11T00:59:43.208Z,13.00
2023-12-11T01:04:46.637Z,13.75
2023-12-11T01:09:50.071Z,13.50
2023-12-11T01:14:53.337Z,10.50
2023-12-11T01:19:56.756Z,11.00
2023-12-11T01:25:03.411Z,16.75
2023-12-11T01:30:07.913Z,15.50
2023-12-11T01:35:11.200Z,13.75
2023-12-11T01:40:14.647Z,13.67
2023-12-11T01:45:18.119Z,13.50
2023-12-11T01:50:21.410Z,14.00
2023-12-11T01:55:24.569Z,16.50
2023-12-11T02:00:27.744Z,14.67
2023-12-11T02:05:31.133Z,10.00
2023-12-11T02:10:34.332Z,14.50
2023-12-11T02:15:47.434Z,15.50
2023-12-11T02:20:50.708Z,14.00
2023-12-11T02:26:02.441Z,13.25
2023-12-11T02:31:06.118Z,12.67
2023-12-11T02:36:09.620Z,13.75
2023-12-11T02:41:12.838Z,12.50
2023-12-11T02:46:16.287Z,14.25
2023-12-11T02:51:19.604Z,15.00
2023-12-11T02:56:22.893Z,13.25
2023-12-11T03:01:26.168Z,14.25
2023-12-11T03:06:29.602Z,13.00
2023-12-11T03:11:32.881Z,14.50
2023-12-11T03:16:36.363Z,12.75
2023-12-11T03:21:39.624Z,12.00
2023-12-11T03:26:42.916Z,18.75
2023-12-11T03:31:46.215Z,11.50
2023-12-11T03:36:49.524Z,13.50
2023-12-11T03:41:53.235Z,14.25
2023-12-11T03:46:56.643Z,12.75
2023-12-11T03:51:59.928Z,14.33
2023-12-11T03:57:03.514Z,14.00
2023-12-11T04:02:07.316Z,13.50
2023-12-11T04:07:10.734Z,16.00
2023-12-11T04:12:14.084Z,13.75
2023-12-11T04:17:17.490Z,16.00
2023-12-11T04:22:20.739Z,13.33
2023-12-11T04:27:24.040Z,13.75
2023-12-11T04:32:27.405Z,17.33
2023-12-11T04:37:30.886Z,16.33
2023-12-11T04:42:34.372Z,21.00
2023-12-11T04:47:37.794Z,23.00
2023-12-11T04:52:41.093Z,20.75
2023-12-11T04:57:44.419Z,21.75
2023-12-11T05:02:47.774Z,23.00
2023-12-11T05:07:50.985Z,27.50
2023-12-11T05:12:54.237Z,31.00
2023-12-11T05:17:57.619Z,24.00
2023-12-11T05:23:00.897Z,28.00
2023-12-11T05:28:04.294Z,26.75
2023-12-11T05:33:07.651Z,27.25
2023-12-11T05:38:11.016Z,31.75
2023-12-11T05:43:14.605Z,32.33
2023-12-11T05:48:20.394Z,29.00
2023-12-11T05:53:23.806Z,32.50
2023-12-11T05:58:27.135Z,38.75
2023-12-11T06:03:30.551Z,37.50
2023-12-11T06:08:34.172Z,31.50
2023-12-11T06:13:37.751Z,34.00
2023-12-11T06:18:43.100Z,29.75
2023-12-11T06:23:46.579Z,35.50
2023-12-11T06:28:49.891Z,34.00
2023-12-11T06:33:53.687Z,33.00
2023-12-11T06:38:58.123Z,32.75
2023-12-11T06:44:02.474Z,32.75
2023-12-11T06:49:06.714Z,35.25
2023-12-11T06:54:10.342Z,31.00
2023-12-11T06:59:13.769Z,30.75
2023-12-11T07:04:17.573Z,35.00
2023-12-11T07:09:21.038Z,37.75
2023-12-11T07:14:25.492Z,29.67
2023-12-11T07:19:29.129Z,31.75
2023-12-11T07:24:32.839Z,31.75
2023-12-11T07:29:36.233Z,30.00
2023-12-11T07:34:39.706Z,32.25
2023-12-11T07:39:43.874Z,31.75
2023-12-11T07:44:47.328Z,30.25
2023-12-11T07:49:51.191Z,30.00
2023-12-11T08:57:46.295Z,66.25
2023-12-11T09:02:50.381Z,68.75
2023-12-11T09:07:54.234Z,57.00
2023-12-11T09:12:58.358Z,61.50
2023-12-11T09:18:01.813Z,56.25
2023-12-11T09:23:05.401Z,52.50
2023-12-11T09:28:08.805Z,52.67
2023-12-11T09:33:14.125Z,50.50
2023-12-11T09:38:17.787Z,49.25
2023-12-11T09:43:21.284Z,49.00
2023-12-11T09:48:24.998Z,48.75
2023-12-11T09:53:29.998Z,44.25
2023-12-11T09:58:33.363Z,46.00
2023-12-11T10:03:37.378Z,46.00
2023-12-11T10:08:44.418Z,46.00
2023-12-11T10:13:49.922Z,48.50
2023-12-11T10:18:54.664Z,44.33
2023-12-11T10:24:05.346Z,45.75
2023-12-11T10:29:25.045Z,41.25
2023-12-11T10:34:45.291Z,43.00
2023-12-11T10:39:55.725Z,43.25
2023-12-11T10:44:59.217Z,43.75
2023-12-11T10:50:04.248Z,45.50
2023-12-11T10:55:08.143Z,44.67
2023-12-11T11:00:14.811Z,51.75
2023-12-11T11:05:19.073Z,54.50
2023-12-11T11:10:28.685Z,48.25
2023-12-11T11:15:32.104Z,42.50
2023-12-11T11:20:36.340Z,50.25
2023-12-11T11:25:40.710Z,46.25
2023-12-11T11:30:45.379Z,43.25
2023-12-11T11:35:49.290Z,48.75
2023-12-11T11:40:54.357Z,39.75
2023-12-11T11:45:58.112Z,47.00
2023-12-11T11:51:01.397Z,42.75
2023-12-11T11:56:04.956Z,43.00
2023-12-11T12:01:08.367Z,41.75
2023-12-11T12:06:11.971Z,42.25
2023-12-11T12:11:16.586Z,37.50
2023-12-11T12:16:30.214Z,44.25
2023-12-11T12:21:47.056Z,37.00
2023-12-11T12:27:11.676Z,41.00
2023-12-11T12:32:15.133Z,33.75
2023-12-11T12:37:18.443Z,38.50
2023-12-11T12:42:21.713Z,39.25
2023-12-11T12:47:24.952Z,38.25
2023-12-11T12:52:29.232Z,40.00
2023-12-11T12:57:37.630Z,43.00
2023-12-11T13:02:40.996Z,42.25
2023-12-11T13:07:56.299Z,41.25
2023-12-11T13:12:59.684Z,42.25
2023-12-11T13:18:03.141Z,37.25
2023-12-11T13:23:06.413Z,40.00
2023-12-11T13:28:09.822Z,38.25
2023-12-11T13:33:13.363Z,39.75
2023-12-11T13:38:16.815Z,44.25
2023-12-11T13:43:20.059Z,34.50
2023-12-11T13:48:23.358Z,39.25
2023-12-11T13:53:27.106Z,37.75
2023-12-11T13:58:30.475Z,36.50
2023-12-11T14:03:33.843Z,42.25
2023-12-11T14:08:37.370Z,38.33
2023-12-11T14:13:40.606Z,41.00
2023-12-11T14:18:43.946Z,38.75
2023-12-11T14:23:48.120Z,35.67
2023-12-11T14:28:51.500Z,38.00
2023-12-11T14:33:54.982Z,38.75
2023-12-11T14:38:58.406Z,47.25
2023-12-11T14:44:01.654Z,37.25
2023-12-11T14:49:05.042Z,42.50
2023-12-11T14:54:08.552Z,38.50
2023-12-11T14:59:12.037Z,36.50
2023-12-11T15:04:15.329Z,34.50
2023-12-11T15:09:18.557Z,37.67
2023-12-11T15:14:24.256Z,40.75
2023-12-11T15:19:28.431Z,39.25
2023-12-11T15:24:34.326Z,33.33
2023-12-11T15:29:37.879Z,30.00
2023-12-11T15:34:42.693Z,37.50
2023-12-11T15:39:45.998Z,34.25
2023-12-11T15:44:49.816Z,34.25
2023-12-11T15:49:53.375Z,37.50
2023-12-11T15:54:57.477Z,34.25
2023-12-11T16:00:00.729Z,32.75
2023-12-11T16:05:04.762Z,26.50
2023-12-11T16:10:08.676Z,30.50
2023-12-11T16:15:12.013Z,32.50
2023-12-11T16:20:15.768Z,29.00
2023-12-11T16:25:19.244Z,28.67
2023-12-11T16:30:22.667Z,27.75
2023-12-11T16:35:25.985Z,26.00
2023-12-11T16:40:29.661Z,28.50
2023-12-11T16:45:32.968Z,28.50
2023-12-11T16:50:36.324Z,30.25
2023-12-11T16:55:39.806Z,28.00
2023-12-11T17:00:43.939Z,28.50
2023-12-11T17:05:47.557Z,32.50
2023-12-11T17:10:50.975Z,28.25
2023-12-11T17:15:54.962Z,24.25
2023-12-11T17:20:58.261Z,27.67
2023-12-11T17:26:01.499Z,23.50
2023-12-11T17:31:05.011Z,23.25
2023-12-11T17:36:09.702Z,24.00
2023-12-11T17:41:12.974Z,27.00
2023-12-11T17:46:16.348Z,23.00
2023-12-11T17:51:19.755Z,26.25
2023-12-11T17:56:23.059Z,28.25
2023-12-11T18:01:26.451Z,30.00
2023-12-11T18:06:29.763Z,28.50
2023-12-11T18:11:33.193Z,24.00
2023-12-11T18:16:36.568Z,24.75
2023-12-11T18:21:41.553Z,27.75
2023-12-11T18:26:47.646Z,27.00
2023-12-11T18:31:51.213Z,23.33
2023-12-11T18:36:54.435Z,26.00
2023-12-11T18:41:57.707Z,22.75
2023-12-11T18:47:00.909Z,20.50
2023-12-11T18:52:05.139Z,25.25
2023-12-11T18:57:08.676Z,21.25
2023-12-11T19:02:13.438Z,24.25
2023-12-11T19:07:16.811Z,23.50
2023-12-11T19:12:20.144Z,25.00
2023-12-11T19:17:23.449Z,21.67
2023-12-11T19:22:27.315Z,29.00
2023-12-11T19:27:30.800Z,25.25
2023-12-11T19:32:34.295Z,22.00
2023-12-11T19:37:37.797Z,22.75
2023-12-11T19:42:48.347Z,23.00
2023-12-11T19:47:52.008Z,22.75
2023-12-11T19:52:57.657Z,23.00
2023-12-11T19:58:01.087Z,20.50
2023-12-11T20:03:04.596Z,21.00
2023-12-11T20:08:07.869Z,23.50
2023-12-11T20:13:11.176Z,24.25
2023-12-11T20:18:15.682Z,22.25
2023-12-11T20:23:19.329Z,26.75
2023-12-11T20:28:22.646Z,23.00
2023-12-11T20:33:26.136Z,25.25
2023-12-11T20:38:29.463Z,24.50
2023-12-11T20:43:32.669Z,23.50
2023-12-11T20:48:35.951Z,23.50
2023-12-11T20:53:39.320Z,22.00
2023-12-11T20:58:42.601Z,25.33
2023-12-11T21:03:45.913Z,26.50
2023-12-11T21:08:49.994Z,16.75
2023-12-11T21:13:53.470Z,22.50
2023-12-11T21:18:56.882Z,23.75
2023-12-11T21:24:00.293Z,22.25
2023-12-11T21:29:03.602Z,20.50
2023-12-11T21:34:06.932Z,22.50
2023-12-11T21:39:10.276Z,20.50
2023-12-11T21:44:13.638Z,20.33
2023-12-11T21:49:19.131Z,21.50
2023-12-11T21:54:23.366Z,21.75
2023-12-11T21:59:35.341Z,22.00
2023-12-11T22:04:43.128Z,17.75
2023-12-11T22:09:46.409Z,21.50
2023-12-11T22:14:49.747Z,23.75
2023-12-11T22:19:53.045Z,21.33
2023-12-11T22:24:56.718Z,21.33
2023-12-11T22:30:00.011Z,20.25
2023-12-11T22:35:03.591Z,21.50
2023-12-11T22:40:07.724Z,17.50
2023-12-11T22:45:11.159Z,20.25
2023-12-11T22:50:14.546Z,22.00
2023-12-11T22:55:17.818Z,22.00
2023-12-11T23:00:27.642Z,19.67
2023-12-11T23:05:32.154Z,21.75
2023-12-11T23:10:35.646Z,21.75
2023-12-11T23:15:38.967Z,23.00
2023-12-11T23:20:42.159Z,18.33
2023-12-11T23:25:54.075Z,18.25
2023-12-11T23:31:01.783Z,20.75
2023-12-11T23:36:06.104Z,20.25
2023-12-11T23:41:09.396Z,20.67
2023-12-11T23:46:12.701Z,22.25
2023-12-11T23:51:15.953Z,24.75
2023-12-11T23:56:19.119Z,19.67
